sensor_id;sensor_type;location;lat;lon;timestamp;pressure;altitude;pressure_sealevel;temperature;humidity
82619;BME280;72286;12.138;-68.936;2023-10-19T00:01:50;100901.16;;;30.06;66.69
82619;BME280;72286;12.138;-68.936;2023-10-19T00:05:34;100915.68;;;30.09;66.43
82619;BME280;72286;12.138;-68.936;2023-10-19T00:09:11;100922.14;;;30.10;66.20
82619;BME280;72286;12.138;-68.936;2023-10-19T00:12:49;100932.05;;;30.09;66.27
82619;BME280;72286;12.138;-68.936;2023-10-19T00:16:33;100930.63;;;30.07;66.48
82619;BME280;72286;12.138;-68.936;2023-10-19T00:20:13;100934.57;;;30.11;66.23
82619;BME280;72286;12.138;-68.936;2023-10-19T00:24:17;100940.44;;;30.11;66.21
82619;BME280;72286;12.138;-68.936;2023-10-19T00:27:59;100943.88;;;30.09;66.21
82619;BME280;72286;12.138;-68.936;2023-10-19T00:31:37;100957.31;;;30.08;66.56
82619;BME280;72286;12.138;-68.936;2023-10-19T00:35:17;100960.41;;;30.08;66.48
82619;BME280;72286;12.138;-68.936;2023-10-19T00:39:03;100969.16;;;30.05;66.47
82619;BME280;72286;12.138;-68.936;2023-10-19T00:43:03;100972.98;;;30.03;66.69
82619;BME280;72286;12.138;-68.936;2023-10-19T00:46:31;100971.66;;;29.97;66.57
82619;BME280;72286;12.138;-68.936;2023-10-19T00:50:20;100977.30;;;29.87;66.16
82619;BME280;72286;12.138;-68.936;2023-10-19T00:54:10;100986.29;;;29.79;66.56
82619;BME280;72286;12.138;-68.936;2023-10-19T00:57:48;101000.04;;;29.76;66.65
82619;BME280;72286;12.138;-68.936;2023-10-19T01:01:28;100997.16;;;29.78;66.59
82619;BME280;72286;12.138;-68.936;2023-10-19T01:05:06;100996.47;;;29.88;66.23
82619;BME280;72286;12.138;-68.936;2023-10-19T01:08:43;100995.92;;;29.92;66.50
82619;BME280;72286;12.138;-68.936;2023-10-19T01:12:21;100998.52;;;29.95;66.17
82619;BME280;72286;12.138;-68.936;2023-10-19T01:16:01;101005.87;;;29.91;66.36
82619;BME280;72286;12.138;-68.936;2023-10-19T01:19:40;101015.67;;;29.85;66.63
82619;BME280;72286;12.138;-68.936;2023-10-19T01:23:18;101021.75;;;29.75;66.97
82619;BME280;72286;12.138;-68.936;2023-10-19T01:27:03;101024.14;;;29.74;66.83
82619;BME280;72286;12.138;-68.936;2023-10-19T01:30:40;101032.72;;;29.77;66.87
82619;BME280;72286;12.138;-68.936;2023-10-19T01:34:19;101039.48;;;29.80;66.89
82619;BME280;72286;12.138;-68.936;2023-10-19T01:37:56;101045.50;;;29.72;67.04
82619;BME280;72286;12.138;-68.936;2023-10-19T01:41:34;101046.52;;;29.69;67.31
82619;BME280;72286;12.138;-68.936;2023-10-19T01:45:11;101046.55;;;29.72;66.94
82619;BME280;72286;12.138;-68.936;2023-10-19T01:48:52;101043.63;;;29.76;66.68
82619;BME280;72286;12.138;-68.936;2023-10-19T01:52:32;101053.58;;;29.73;66.92
82619;BME280;72286;12.138;-68.936;2023-10-19T01:56:15;101062.73;;;29.72;66.99
82619;BME280;72286;12.138;-68.936;2023-10-19T01:59:53;101068.30;;;29.67;67.12
82619;BME280;72286;12.138;-68.936;2023-10-19T02:03:31;101068.94;;;29.68;67.22
82619;BME280;72286;12.138;-68.936;2023-10-19T02:07:08;101071.51;;;29.73;67.01
82619;BME280;72286;12.138;-68.936;2023-10-19T02:10:54;101077.44;;;29.69;67.27
82619;BME280;72286;12.138;-68.936;2023-10-19T02:14:32;101081.67;;;29.68;67.23
82619;BME280;72286;12.138;-68.936;2023-10-19T02:18:10;101081.88;;;29.68;67.38
82619;BME280;72286;12.138;-68.936;2023-10-19T02:21:52;101088.91;;;29.61;67.50
82619;BME280;72286;12.138;-68.936;2023-10-19T02:25:30;101098.02;;;29.56;67.65
82619;BME280;72286;12.138;-68.936;2023-10-19T02:29:13;101099.38;;;29.53;67.83
82619;BME280;72286;12.138;-68.936;2023-10-19T02:32:50;101093.40;;;29.49;68.19
82619;BME280;72286;12.138;-68.936;2023-10-19T02:36:28;101088.64;;;29.39;68.78
82619;BME280;72286;12.138;-68.936;2023-10-19T02:40:07;101085.16;;;29.36;69.15
82619;BME280;72286;12.138;-68.936;2023-10-19T02:43:56;101087.14;;;29.38;68.82
82619;BME280;72286;12.138;-68.936;2023-10-19T02:47:46;101093.48;;;29.37;68.85
82619;BME280;72286;12.138;-68.936;2023-10-19T02:51:44;101099.04;;;29.39;69.05
82619;BME280;72286;12.138;-68.936;2023-10-19T02:55:02;101103.09;;;29.40;69.04
82619;BME280;72286;12.138;-68.936;2023-10-19T02:58:44;101107.62;;;29.38;69.43
82619;BME280;72286;12.138;-68.936;2023-10-19T03:02:26;101108.03;;;29.34;69.51
82619;BME280;72286;12.138;-68.936;2023-10-19T03:06:03;101106.09;;;29.30;70.16
82619;BME280;72286;12.138;-68.936;2023-10-19T03:09:41;101109.42;;;29.27;70.35
82619;BME280;72286;12.138;-68.936;2023-10-19T03:13:39;101103.29;;;29.23;70.85
82619;BME280;72286;12.138;-68.936;2023-10-19T03:17:18;101102.38;;;29.22;70.85
82619;BME280;72286;12.138;-68.936;2023-10-19T03:20:55;101099.30;;;29.22;70.72
82619;BME280;72286;12.138;-68.936;2023-10-19T03:24:33;101102.40;;;29.27;70.34
82619;BME280;72286;12.138;-68.936;2023-10-19T03:28:14;101112.27;;;29.24;70.17
82619;BME280;72286;12.138;-68.936;2023-10-19T03:31:53;101111.59;;;29.25;70.07
82619;BME280;72286;12.138;-68.936;2023-10-19T03:35:30;101102.56;;;29.25;70.10
82619;BME280;72286;12.138;-68.936;2023-10-19T03:39:10;101099.29;;;29.26;70.19
82619;BME280;72286;12.138;-68.936;2023-10-19T03:42:50;101102.81;;;29.27;70.25
82619;BME280;72286;12.138;-68.936;2023-10-19T03:46:31;101106.55;;;29.27;70.39
82619;BME280;72286;12.138;-68.936;2023-10-19T03:50:09;101105.95;;;29.26;70.55
82619;BME280;72286;12.138;-68.936;2023-10-19T03:53:51;101115.58;;;29.23;70.93
82619;BME280;72286;12.138;-68.936;2023-10-19T03:57:35;101126.27;;;29.24;71.31
82619;BME280;72286;12.138;-68.936;2023-10-19T04:01:13;101123.13;;;29.13;72.11
82619;BME280;72286;12.138;-68.936;2023-10-19T04:04:52;101124.86;;;29.20;71.33
82619;BME280;72286;12.138;-68.936;2023-10-19T04:08:32;101126.14;;;29.20;70.99
82619;BME280;72286;12.138;-68.936;2023-10-19T04:12:11;101125.70;;;29.18;71.14
82619;BME280;72286;12.138;-68.936;2023-10-19T04:15:50;101124.52;;;29.20;70.83
82619;BME280;72286;12.138;-68.936;2023-10-19T04:19:28;101126.08;;;29.20;70.80
82619;BME280;72286;12.138;-68.936;2023-10-19T04:23:07;101119.89;;;29.15;71.35
82619;BME280;72286;12.138;-68.936;2023-10-19T04:26:46;101121.29;;;29.12;71.95
82619;BME280;72286;12.138;-68.936;2023-10-19T04:30:26;101115.43;;;29.15;71.59
82619;BME280;72286;12.138;-68.936;2023-10-19T04:34:05;101106.52;;;29.12;71.42
82619;BME280;72286;12.138;-68.936;2023-10-19T04:37:44;101105.41;;;29.09;71.32
82619;BME280;72286;12.138;-68.936;2023-10-19T04:41:21;101097.83;;;29.11;71.02
82619;BME280;72286;12.138;-68.936;2023-10-19T04:44:59;101097.27;;;29.07;70.92
82619;BME280;72286;12.138;-68.936;2023-10-19T04:48:38;101092.83;;;29.09;70.51
82619;BME280;72286;12.138;-68.936;2023-10-19T04:52:17;101087.55;;;29.04;70.45
82619;BME280;72286;12.138;-68.936;2023-10-19T04:55:54;101083.34;;;29.05;70.20
82619;BME280;72286;12.138;-68.936;2023-10-19T04:59:32;101074.85;;;29.05;70.13
82619;BME280;72286;12.138;-68.936;2023-10-19T05:03:09;101068.80;;;29.03;70.39
82619;BME280;72286;12.138;-68.936;2023-10-19T05:06:47;101065.31;;;29.02;70.37
82619;BME280;72286;12.138;-68.936;2023-10-19T05:10:24;101055.08;;;29.01;70.66
82619;BME280;72286;12.138;-68.936;2023-10-19T05:14:03;101039.73;;;29.02;70.60
82619;BME280;72286;12.138;-68.936;2023-10-19T05:17:41;101038.19;;;28.99;70.66
82619;BME280;72286;12.138;-68.936;2023-10-19T05:21:20;101030.03;;;28.98;70.46
82619;BME280;72286;12.138;-68.936;2023-10-19T05:24:58;101024.31;;;29.00;70.38
82619;BME280;72286;12.138;-68.936;2023-10-19T05:28:36;101030.25;;;29.00;70.34
82619;BME280;72286;12.138;-68.936;2023-10-19T05:32:13;101022.63;;;28.95;70.39
82619;BME280;72286;12.138;-68.936;2023-10-19T05:35:51;101011.67;;;28.93;70.60
82619;BME280;72286;12.138;-68.936;2023-10-19T05:39:29;101002.38;;;28.91;70.66
82619;BME280;72286;12.138;-68.936;2023-10-19T05:43:08;100996.34;;;28.90;70.45
82619;BME280;72286;12.138;-68.936;2023-10-19T05:46:45;100990.36;;;28.92;70.37
82619;BME280;72286;12.138;-68.936;2023-10-19T05:50:24;100991.30;;;28.88;70.49
82619;BME280;72286;12.138;-68.936;2023-10-19T05:54:01;100990.69;;;28.83;70.38
82619;BME280;72286;12.138;-68.936;2023-10-19T05:57:45;100980.49;;;28.85;70.05
82619;BME280;72286;12.138;-68.936;2023-10-19T06:01:17;100977.89;;;28.84;69.61
82619;BME280;72286;12.138;-68.936;2023-10-19T06:04:55;100987.41;;;28.86;69.62
82619;BME280;72286;12.138;-68.936;2023-10-19T06:08:33;100982.13;;;28.81;69.34
82619;BME280;72286;12.138;-68.936;2023-10-19T06:12:11;100977.52;;;28.78;69.15
82619;BME280;72286;12.138;-68.936;2023-10-19T06:15:49;100984.33;;;28.77;68.99
82619;BME280;72286;12.138;-68.936;2023-10-19T06:19:27;100985.17;;;28.77;68.80
82619;BME280;72286;12.138;-68.936;2023-10-19T06:23:05;100988.31;;;28.74;68.70
82619;BME280;72286;12.138;-68.936;2023-10-19T06:26:44;100986.46;;;28.75;68.42
82619;BME280;72286;12.138;-68.936;2023-10-19T06:30:21;100976.98;;;28.69;68.35
82619;BME280;72286;12.138;-68.936;2023-10-19T06:34:00;100979.01;;;28.70;68.42
82619;BME280;72286;12.138;-68.936;2023-10-19T06:37:37;100975.20;;;28.67;68.12
82619;BME280;72286;12.138;-68.936;2023-10-19T06:41:15;100976.35;;;28.68;68.08
82619;BME280;72286;12.138;-68.936;2023-10-19T06:44:56;100968.63;;;28.68;67.88
82619;BME280;72286;12.138;-68.936;2023-10-19T06:48:34;100977.44;;;28.66;67.95
82619;BME280;72286;12.138;-68.936;2023-10-19T06:52:12;100974.64;;;28.64;68.23
82619;BME280;72286;12.138;-68.936;2023-10-19T06:55:50;100969.81;;;28.63;68.37
82619;BME280;72286;12.138;-68.936;2023-10-19T06:59:27;100970.07;;;28.63;68.57
82619;BME280;72286;12.138;-68.936;2023-10-19T07:03:06;100972.28;;;28.64;68.65
82619;BME280;72286;12.138;-68.936;2023-10-19T07:06:43;100977.61;;;28.63;69.10
82619;BME280;72286;12.138;-68.936;2023-10-19T07:10:22;100978.15;;;28.65;69.32
82619;BME280;72286;12.138;-68.936;2023-10-19T07:14:00;100976.51;;;28.63;69.39
82619;BME280;72286;12.138;-68.936;2023-10-19T07:17:38;100973.61;;;28.63;69.71
82619;BME280;72286;12.138;-68.936;2023-10-19T07:21:16;100968.73;;;28.61;70.22
82619;BME280;72286;12.138;-68.936;2023-10-19T07:24:54;100977.32;;;28.60;70.18
82619;BME280;72286;12.138;-68.936;2023-10-19T07:28:32;100973.54;;;28.60;70.35
82619;BME280;72286;12.138;-68.936;2023-10-19T07:32:10;100968.55;;;28.61;70.54
82619;BME280;72286;12.138;-68.936;2023-10-19T07:35:50;100972.90;;;28.63;70.71
82619;BME280;72286;12.138;-68.936;2023-10-19T07:39:38;100972.70;;;28.63;70.67
82619;BME280;72286;12.138;-68.936;2023-10-19T07:43:24;100973.91;;;28.64;70.77
82619;BME280;72286;12.138;-68.936;2023-10-19T07:46:57;100963.45;;;28.66;70.80
82619;BME280;72286;12.138;-68.936;2023-10-19T07:50:36;100959.25;;;28.67;70.85
82619;BME280;72286;12.138;-68.936;2023-10-19T07:54:14;100954.14;;;28.62;71.17
82619;BME280;72286;12.138;-68.936;2023-10-19T07:57:52;100958.29;;;28.58;71.37
82619;BME280;72286;12.138;-68.936;2023-10-19T08:01:31;100963.33;;;28.60;71.35
82619;BME280;72286;12.138;-68.936;2023-10-19T08:05:08;100969.15;;;28.63;71.49
82619;BME280;72286;12.138;-68.936;2023-10-19T08:08:48;100964.47;;;28.61;72.09
82619;BME280;72286;12.138;-68.936;2023-10-19T08:12:26;100955.97;;;28.64;71.50
82619;BME280;72286;12.138;-68.936;2023-10-19T08:16:05;100958.77;;;28.66;71.89
82619;BME280;72286;12.138;-68.936;2023-10-19T08:19:43;100945.08;;;28.65;72.47
82619;BME280;72286;12.138;-68.936;2023-10-19T08:23:21;100941.84;;;28.65;72.25
82619;BME280;72286;12.138;-68.936;2023-10-19T08:27:03;100935.34;;;28.65;72.29
82619;BME280;72286;12.138;-68.936;2023-10-19T08:30:45;100932.55;;;28.68;72.15
82619;BME280;72286;12.138;-68.936;2023-10-19T08:34:36;100929.19;;;28.64;72.61
82619;BME280;72286;12.138;-68.936;2023-10-19T08:38:14;100925.73;;;28.64;72.63
82619;BME280;72286;12.138;-68.936;2023-10-19T08:41:51;100926.33;;;28.64;72.51
82619;BME280;72286;12.138;-68.936;2023-10-19T08:45:33;100927.38;;;28.64;72.66
82619;BME280;72286;12.138;-68.936;2023-10-19T08:49:15;100924.89;;;28.65;72.61
82619;BME280;72286;12.138;-68.936;2023-10-19T08:52:54;100923.51;;;28.63;72.56
82619;BME280;72286;12.138;-68.936;2023-10-19T08:56:32;100923.88;;;28.65;72.42
82619;BME280;72286;12.138;-68.936;2023-10-19T09:00:13;100930.09;;;28.65;72.11
82619;BME280;72286;12.138;-68.936;2023-10-19T09:03:57;100939.56;;;28.66;71.88
82619;BME280;72286;12.138;-68.936;2023-10-19T09:07:35;100937.66;;;28.67;71.80
82619;BME280;72286;12.138;-68.936;2023-10-19T09:11:12;100927.04;;;28.64;71.95
82619;BME280;72286;12.138;-68.936;2023-10-19T09:14:51;100919.26;;;28.64;72.03
82619;BME280;72286;12.138;-68.936;2023-10-19T09:18:30;100915.84;;;28.66;72.18
82619;BME280;72286;12.138;-68.936;2023-10-19T09:22:08;100900.98;;;28.65;72.18
82619;BME280;72286;12.138;-68.936;2023-10-19T09:25:57;100895.52;;;28.66;72.03
82619;BME280;72286;12.138;-68.936;2023-10-19T09:29:36;100902.45;;;28.65;72.16
82619;BME280;72286;12.138;-68.936;2023-10-19T09:33:13;100897.13;;;28.64;72.49
82619;BME280;72286;12.138;-68.936;2023-10-19T09:36:52;100891.30;;;28.63;72.51
82619;BME280;72286;12.138;-68.936;2023-10-19T09:40:29;100897.20;;;28.62;72.72
82619;BME280;72286;12.138;-68.936;2023-10-19T09:44:09;100909.98;;;28.61;72.99
82619;BME280;72286;12.138;-68.936;2023-10-19T09:48:08;100924.31;;;28.62;72.91
82619;BME280;72286;12.138;-68.936;2023-10-19T09:51:27;100922.58;;;28.65;72.62
82619;BME280;72286;12.138;-68.936;2023-10-19T09:58:57;100923.67;;;28.65;72.55
82619;BME280;72286;12.138;-68.936;2023-10-19T10:02:43;100930.51;;;28.63;72.68
82619;BME280;72286;12.138;-68.936;2023-10-19T10:06:30;100934.75;;;28.64;72.68
82619;BME280;72286;12.138;-68.936;2023-10-19T10:10:27;100936.95;;;28.65;72.64
82619;BME280;72286;12.138;-68.936;2023-10-19T10:14:23;100941.41;;;28.65;72.82
82619;BME280;72286;12.138;-68.936;2023-10-19T10:18:12;100950.87;;;28.68;72.78
82619;BME280;72286;12.138;-68.936;2023-10-19T10:22:11;100951.83;;;28.67;72.62
82619;BME280;72286;12.138;-68.936;2023-10-19T10:25:58;100961.57;;;28.67;72.64
82619;BME280;72286;12.138;-68.936;2023-10-19T10:29:36;100959.63;;;28.66;72.54
82619;BME280;72286;12.138;-68.936;2023-10-19T10:33:37;100961.70;;;28.69;72.66
82619;BME280;72286;12.138;-68.936;2023-10-19T10:37:15;100965.02;;;28.70;72.58
82619;BME280;72286;12.138;-68.936;2023-10-19T10:40:53;100961.86;;;28.71;72.49
82619;BME280;72286;12.138;-68.936;2023-10-19T10:44:41;100973.59;;;28.73;72.56
82619;BME280;72286;12.138;-68.936;2023-10-19T10:48:19;100983.11;;;28.73;72.71
82619;BME280;72286;12.138;-68.936;2023-10-19T10:51:57;100992.96;;;28.73;72.61
82619;BME280;72286;12.138;-68.936;2023-10-19T10:55:34;100995.38;;;28.76;72.34
82619;BME280;72286;12.138;-68.936;2023-10-19T10:59:13;101003.70;;;28.79;71.95
82619;BME280;72286;12.138;-68.936;2023-10-19T11:06:53;101016.08;;;28.87;71.79
82619;BME280;72286;12.138;-68.936;2023-10-19T11:10:33;101023.48;;;28.88;71.79
82619;BME280;72286;12.138;-68.936;2023-10-19T11:14:12;101027.16;;;28.91;71.79
82619;BME280;72286;12.138;-68.936;2023-10-19T11:17:49;101026.70;;;28.99;71.81
82619;BME280;72286;12.138;-68.936;2023-10-19T11:21:28;101037.34;;;29.04;71.88
82619;BME280;72286;12.138;-68.936;2023-10-19T11:25:22;101047.29;;;29.11;71.88
82619;BME280;72286;12.138;-68.936;2023-10-19T11:29:03;101055.54;;;29.35;71.63
82619;BME280;72286;12.138;-68.936;2023-10-19T11:32:52;101063.52;;;29.42;71.24
82619;BME280;72286;12.138;-68.936;2023-10-19T11:36:38;101064.45;;;29.67;70.22
82619;BME280;72286;12.138;-68.936;2023-10-19T11:40:01;101070.37;;;29.93;68.89
82619;BME280;72286;12.138;-68.936;2023-10-19T11:43:42;101082.09;;;30.12;68.42
82619;BME280;72286;12.138;-68.936;2023-10-19T11:47:20;101091.32;;;30.33;67.57
82619;BME280;72286;12.138;-68.936;2023-10-19T11:50:58;101090.72;;;30.48;66.85
82619;BME280;72286;12.138;-68.936;2023-10-19T11:54:35;101099.52;;;30.62;66.73
82619;BME280;72286;12.138;-68.936;2023-10-19T11:58:13;101097.50;;;30.67;66.47
82619;BME280;72286;12.138;-68.936;2023-10-19T12:01:51;101104.81;;;30.64;65.74
82619;BME280;72286;12.138;-68.936;2023-10-19T12:05:29;101108.39;;;30.53;66.25
82619;BME280;72286;12.138;-68.936;2023-10-19T12:09:07;101097.35;;;30.60;66.85
82619;BME280;72286;12.138;-68.936;2023-10-19T12:12:53;101095.14;;;30.50;66.41
82619;BME280;72286;12.138;-68.936;2023-10-19T12:16:31;101100.78;;;30.39;66.95
82619;BME280;72286;12.138;-68.936;2023-10-19T12:20:10;101107.85;;;30.28;67.24
82619;BME280;72286;12.138;-68.936;2023-10-19T12:23:50;101108.91;;;30.18;67.50
82619;BME280;72286;12.138;-68.936;2023-10-19T12:27:31;101113.95;;;30.11;67.59
82619;BME280;72286;12.138;-68.936;2023-10-19T12:31:09;101122.55;;;29.98;69.66
82619;BME280;72286;12.138;-68.936;2023-10-19T12:34:49;101135.75;;;29.76;72.63
82619;BME280;72286;12.138;-68.936;2023-10-19T12:38:29;101142.21;;;29.47;73.78
82619;BME280;72286;12.138;-68.936;2023-10-19T12:42:07;101148.45;;;29.07;76.61
82619;BME280;72286;12.138;-68.936;2023-10-19T12:45:45;101149.08;;;29.02;76.38
82619;BME280;72286;12.138;-68.936;2023-10-19T12:49:36;101148.28;;;28.76;77.59
82619;BME280;72286;12.138;-68.936;2023-10-19T12:53:16;101150.82;;;28.74;77.94
82619;BME280;72286;12.138;-68.936;2023-10-19T12:56:53;101151.44;;;28.81;78.41
82619;BME280;72286;12.138;-68.936;2023-10-19T13:00:31;101154.30;;;29.04;77.14
82619;BME280;72286;12.138;-68.936;2023-10-19T13:04:12;101157.77;;;29.07;77.01
82619;BME280;72286;12.138;-68.936;2023-10-19T13:07:56;101154.95;;;29.45;75.97
82619;BME280;72286;12.138;-68.936;2023-10-19T13:11:35;101150.46;;;29.91;74.39
82619;BME280;72286;12.138;-68.936;2023-10-19T13:15:12;101149.39;;;30.25;70.24
82619;BME280;72286;12.138;-68.936;2023-10-19T13:18:52;101148.74;;;30.55;70.41
82619;BME280;72286;12.138;-68.936;2023-10-19T13:22:30;101159.85;;;30.81;68.27
82619;BME280;72286;12.138;-68.936;2023-10-19T13:26:10;101154.67;;;30.99;64.88
82619;BME280;72286;12.138;-68.936;2023-10-19T13:30:04;101156.67;;;31.25;65.25
82619;BME280;72286;12.138;-68.936;2023-10-19T13:33:41;101157.95;;;31.42;64.50
82619;BME280;72286;12.138;-68.936;2023-10-19T13:37:20;101158.64;;;31.50;63.27
82619;BME280;72286;12.138;-68.936;2023-10-19T13:40:59;101165.44;;;31.59;63.40
82619;BME280;72286;12.138;-68.936;2023-10-19T13:44:59;101164.73;;;31.74;63.05
82619;BME280;72286;12.138;-68.936;2023-10-19T13:48:17;101164.71;;;31.81;62.76
82619;BME280;72286;12.138;-68.936;2023-10-19T13:51:55;101171.23;;;31.98;61.93
82619;BME280;72286;12.138;-68.936;2023-10-19T13:55:32;101172.44;;;32.08;61.91
82619;BME280;72286;12.138;-68.936;2023-10-19T13:59:13;101161.64;;;32.03;61.76
82619;BME280;72286;12.138;-68.936;2023-10-19T14:02:51;101160.20;;;32.10;61.75
82619;BME280;72286;12.138;-68.936;2023-10-19T14:06:30;101155.54;;;32.25;61.44
82619;BME280;72286;12.138;-68.936;2023-10-19T14:10:09;101155.38;;;32.42;60.24
82619;BME280;72286;12.138;-68.936;2023-10-19T14:13:50;101149.73;;;32.43;59.76
82619;BME280;72286;12.138;-68.936;2023-10-19T14:17:29;101146.77;;;32.42;58.99
82619;BME280;72286;12.138;-68.936;2023-10-19T14:21:14;101144.33;;;32.53;58.78
82619;BME280;72286;12.138;-68.936;2023-10-19T14:24:51;101139.88;;;32.58;58.83
82619;BME280;72286;12.138;-68.936;2023-10-19T14:28:29;101140.40;;;32.65;57.96
82619;BME280;72286;12.138;-68.936;2023-10-19T14:32:07;101130.06;;;32.80;57.99
82619;BME280;72286;12.138;-68.936;2023-10-19T14:35:44;101119.77;;;32.94;57.38
82619;BME280;72286;12.138;-68.936;2023-10-19T14:39:22;101119.96;;;32.99;57.23
82619;BME280;72286;12.138;-68.936;2023-10-19T14:43:01;101108.60;;;33.24;56.00
82619;BME280;72286;12.138;-68.936;2023-10-19T14:46:40;101104.80;;;33.44;55.33
82619;BME280;72286;12.138;-68.936;2023-10-19T14:50:18;101097.81;;;33.57;54.36
82619;BME280;72286;12.138;-68.936;2023-10-19T14:53:56;101086.88;;;33.59;53.92
82619;BME280;72286;12.138;-68.936;2023-10-19T14:57:41;101079.63;;;33.63;54.48
82619;BME280;72286;12.138;-68.936;2023-10-19T15:01:11;101079.75;;;33.67;54.34
82619;BME280;72286;12.138;-68.936;2023-10-19T15:04:53;101072.76;;;33.72;53.00
82619;BME280;72286;12.138;-68.936;2023-10-19T15:08:31;101063.24;;;33.82;53.39
82619;BME280;72286;12.138;-68.936;2023-10-19T15:12:08;101052.60;;;34.02;53.48
82619;BME280;72286;12.138;-68.936;2023-10-19T15:15:47;101049.69;;;33.96;52.73
82619;BME280;72286;12.138;-68.936;2023-10-19T15:19:24;101039.98;;;33.83;52.04
82619;BME280;72286;12.138;-68.936;2023-10-19T15:23:02;101028.32;;;33.84;51.29
82619;BME280;72286;12.138;-68.936;2023-10-19T15:26:40;101030.41;;;33.92;50.32
82619;BME280;72286;12.138;-68.936;2023-10-19T15:30:38;101024.92;;;33.95;50.81
82619;BME280;72286;12.138;-68.936;2023-10-19T15:33:56;101010.69;;;33.95;51.24
82619;BME280;72286;12.138;-68.936;2023-10-19T15:37:33;101007.02;;;34.07;51.55
82619;BME280;72286;12.138;-68.936;2023-10-19T15:41:11;100990.61;;;34.06;50.23
82619;BME280;72286;12.138;-68.936;2023-10-19T15:44:52;100981.67;;;34.05;49.78
82619;BME280;72286;12.138;-68.936;2023-10-19T15:48:33;100971.98;;;34.02;49.98
82619;BME280;72286;12.138;-68.936;2023-10-19T15:52:11;100964.66;;;34.10;50.48
82619;BME280;72286;12.138;-68.936;2023-10-19T15:55:49;100960.73;;;34.12;50.31
82619;BME280;72286;12.138;-68.936;2023-10-19T15:59:27;100951.40;;;34.22;51.03
82619;BME280;72286;12.138;-68.936;2023-10-19T16:03:11;100949.98;;;34.31;51.69
82619;BME280;72286;12.138;-68.936;2023-10-19T16:06:43;100945.72;;;34.23;51.22
82619;BME280;72286;12.138;-68.936;2023-10-19T16:10:22;100929.02;;;34.26;51.52
82619;BME280;72286;12.138;-68.936;2023-10-19T16:14:00;100924.36;;;34.24;51.54
82619;BME280;72286;12.138;-68.936;2023-10-19T16:17:37;100923.55;;;34.13;51.40
82619;BME280;72286;12.138;-68.936;2023-10-19T16:21:19;100917.48;;;34.01;51.42
82619;BME280;72286;12.138;-68.936;2023-10-19T16:24:59;100916.51;;;33.85;51.94
82619;BME280;72286;12.138;-68.936;2023-10-19T16:28:36;100907.67;;;33.88;51.84
82619;BME280;72286;12.138;-68.936;2023-10-19T16:32:14;100896.35;;;33.98;52.01
82619;BME280;72286;12.138;-68.936;2023-10-19T16:35:52;100887.78;;;34.01;51.70
82619;BME280;72286;12.138;-68.936;2023-10-19T16:39:49;100878.51;;;33.87;51.99
82619;BME280;72286;12.138;-68.936;2023-10-19T16:43:13;100868.70;;;33.82;51.87
82619;BME280;72286;12.138;-68.936;2023-10-19T16:46:45;100850.11;;;33.79;51.72
82619;BME280;72286;12.138;-68.936;2023-10-19T16:50:23;100853.91;;;33.80;50.99
82619;BME280;72286;12.138;-68.936;2023-10-19T16:54:01;100839.77;;;33.74;51.79
82619;BME280;72286;12.138;-68.936;2023-10-19T16:57:44;100835.63;;;33.82;51.92
82619;BME280;72286;12.138;-68.936;2023-10-19T17:01:17;100827.64;;;33.82;52.04
82619;BME280;72286;12.138;-68.936;2023-10-19T17:04:54;100818.20;;;33.79;51.91
82619;BME280;72286;12.138;-68.936;2023-10-19T17:08:32;100818.73;;;33.81;51.73
82619;BME280;72286;12.138;-68.936;2023-10-19T17:12:10;100814.98;;;33.88;51.78
82619;BME280;72286;12.138;-68.936;2023-10-19T17:15:48;100803.73;;;33.98;52.50
82619;BME280;72286;12.138;-68.936;2023-10-19T17:19:26;100808.38;;;34.00;52.25
82619;BME280;72286;12.138;-68.936;2023-10-19T17:23:09;100800.37;;;33.96;52.05
82619;BME280;72286;12.138;-68.936;2023-10-19T17:26:41;100796.09;;;34.10;52.69
82619;BME280;72286;12.138;-68.936;2023-10-19T17:30:19;100785.48;;;34.23;52.19
82619;BME280;72286;12.138;-68.936;2023-10-19T17:33:57;100786.98;;;34.22;51.44
82619;BME280;72286;12.138;-68.936;2023-10-19T17:37:41;100785.25;;;34.24;51.01
82619;BME280;72286;12.138;-68.936;2023-10-19T17:41:12;100772.09;;;34.22;50.65
82619;BME280;72286;12.138;-68.936;2023-10-19T17:44:51;100769.18;;;34.24;51.44
82619;BME280;72286;12.138;-68.936;2023-10-19T17:48:35;100767.23;;;34.28;51.81
82619;BME280;72286;12.138;-68.936;2023-10-19T17:52:06;100762.24;;;34.21;51.42
82619;BME280;72286;12.138;-68.936;2023-10-19T17:55:44;100765.60;;;34.22;50.78
82619;BME280;72286;12.138;-68.936;2023-10-19T17:59:22;100757.39;;;34.24;50.78
82619;BME280;72286;12.138;-68.936;2023-10-19T18:03:00;100753.30;;;34.29;50.60
82619;BME280;72286;12.138;-68.936;2023-10-19T18:06:37;100744.49;;;34.33;49.38
82619;BME280;72286;12.138;-68.936;2023-10-19T18:10:16;100733.41;;;34.24;49.56
82619;BME280;72286;12.138;-68.936;2023-10-19T18:13:54;100729.40;;;34.17;50.88
82619;BME280;72286;12.138;-68.936;2023-10-19T18:17:38;100724.50;;;34.03;50.44
82619;BME280;72286;12.138;-68.936;2023-10-19T18:21:10;100721.91;;;33.95;51.33
82619;BME280;72286;12.138;-68.936;2023-10-19T18:24:48;100711.34;;;33.95;52.62
82619;BME280;72286;12.138;-68.936;2023-10-19T18:28:32;100705.66;;;33.90;52.88
82619;BME280;72286;12.138;-68.936;2023-10-19T18:32:03;100704.06;;;33.95;52.31
82619;BME280;72286;12.138;-68.936;2023-10-19T18:35:41;100699.77;;;33.93;52.99
82619;BME280;72286;12.138;-68.936;2023-10-19T18:39:19;100697.82;;;33.86;53.52
82619;BME280;72286;12.138;-68.936;2023-10-19T18:43:02;100683.34;;;33.81;54.09
82619;BME280;72286;12.138;-68.936;2023-10-19T18:46:37;100680.39;;;33.79;53.91